Have a Safe July 4th! 

Flight Track Log - Related Links

Times and Time Zones

All times are in EST time to prevent confusion due to time zone crossing. See the N143DE flight status page for this flight to view local times or setup timezone preferences in your user account.

Time Position Orientation Groundspeed Altitude Reporting Facility
EST Latitude Longitude Course Direction KTS MPH feet Rate Location/Type
Mon 03:00:22 AM 33.6333 -84.5167 270° West 136 157 4,800  Level Atlanta TRACON
Mon 03:01:22 AM 33.6667 -84.5167 360° North 187 215 6,200 1,250 Climbing Atlanta TRACON
Mon 03:02:22 AM 33.6833 -84.4500 73° East 205 236 7,300 1,211 Climbing Atlanta TRACON
Mon 03:03:16 AM 33.7167 -84.4000 51° Northeast 205 236 8,500 1,248 Climbing Atlanta TRACON
Mon 03:04:00 AM 33.8531 -84.0659 54° Northeast  Level Estimated
Mon 03:04:51 AM 33.7647 -84.3236 53° Northeast 208 239 10,400  Level Atlanta Center
Mon 03:05:51 AM 33.7983 -84.2714 52° Northeast 198 228 11,400 1,100 Climbing Atlanta Center
Mon 03:06:51 AM 33.8317 -84.2139 55° Northeast 203 234 12,600 1,250 Climbing Atlanta Center
Mon 03:07:51 AM 33.8631 -84.1614 54° Northeast 203 234 13,900 1,150 Climbing Atlanta Center
Mon 03:08:51 AM 33.8944 -84.1089 54° Northeast 198 228 14,900 1,000 Climbing Atlanta Center
Mon 03:09:51 AM 33.9236 -84.0564 56° Northeast 193 222 15,900 900 Climbing Atlanta Center
Mon 03:10:51 AM 33.9550 -84.0011 56° Northeast 193 222 16,700 800 Climbing Atlanta Center
Mon 03:11:51 AM 33.9883 -83.9461 54° Northeast 193 222 17,500 800 Climbing Atlanta Center
Mon 03:12:51 AM 34.0217 -83.8883 55° Northeast 193 222 18,300 800 Climbing Atlanta Center
Mon 03:13:51 AM 34.0550 -83.8306 55° Northeast 199 229 19,100 900 Climbing Atlanta Center
Mon 03:14:51 AM 34.0883 -83.7703 56° Northeast 212 244 20,100 1,050 Climbing Atlanta Center
Mon 03:15:51 AM 34.1256 -83.7100 53° Northeast 218 251 21,200 950 Climbing Atlanta Center
Mon 03:16:51 AM 34.1547 -83.6547 57° Northeast 218 251 22,000 900 Climbing Atlanta Center
Mon 03:17:51 AM 34.1919 -83.5917 54° Northeast 218 251 23,000 950 Climbing Atlanta Center
Mon 03:18:51 AM 34.2272 -83.5314 55° Northeast 218 251 23,900 950 Climbing Atlanta Center
Mon 03:19:51 AM 34.2625 -83.4683 56° Northeast 218 251 24,900 600 Climbing Atlanta Center
Mon 03:20:51 AM 34.3019 -83.4000 55° Northeast 230 265 25,100 50 Climbing Atlanta Center
Mon 03:21:51 AM 34.3431 -83.3267 56° Northeast 256 295 25,000 -50 Descending Atlanta Center
Mon 03:22:51 AM 34.3928 -83.2433 54° Northeast 269 310 25,000  Level Atlanta Center
Mon 03:23:51 AM 34.4381 -83.1597 57° Northeast 280 322 25,000  Level Atlanta Center
Mon 03:24:51 AM 34.4833 -83.0811 55° Northeast 285 328 25,000  Level Atlanta Center
Mon 03:25:51 AM 34.5286 -82.9975 57° Northeast 285 328 25,000  Level Atlanta Center
Mon 03:26:51 AM 34.5758 -82.9186 54° Northeast 285 328 25,000  Level Atlanta Center
Mon 03:27:51 AM 34.6189 -82.8347 58° Northeast 290 334 25,000  Level Atlanta Center
Mon 03:28:51 AM 34.6622 -82.7661 52° Northeast 284 327 25,000  Level Atlanta Center
Mon 03:29:51 AM 34.7072 -82.6844 56° Northeast 284 327 25,000  Level Atlanta Center
Mon 03:30:51 AM 34.7542 -82.6028 55° Northeast 284 327 25,000  Level Atlanta Center
Mon 03:31:51 AM 34.8053 -82.5158 54° Northeast 284 327 25,000  Level Atlanta Center
Mon 03:32:51 AM 34.8503 -82.4367 55° Northeast 284 327 25,000  Level Atlanta Center
Mon 03:33:51 AM 34.8950 -82.3522 57° Northeast 284 327 25,000  Level Atlanta Center
Mon 03:34:51 AM 34.9397 -82.2728 56° Northeast 284 327 25,000  Level Atlanta Center
Mon 03:35:51 AM 34.9825 -82.2033 53° Northeast 284 327 25,000  Level Atlanta Center
Mon 03:36:51 AM 35.0253 -82.1214 57° Northeast 284 327 25,000  Level Atlanta Center
Mon 03:37:51 AM 35.0697 -82.0417 56° Northeast 284 327 25,000  Level Atlanta Center
Mon 03:38:51 AM 35.1122 -81.9619 57° Northeast 284 327 25,000  Level Atlanta Center
Mon 03:39:51 AM 35.1589 -81.8819 54° Northeast 284 327 25,000  Level Atlanta Center
Mon 03:40:51 AM 35.2033 -81.8044 55° Northeast 284 327 25,000  Level Atlanta Center
Mon 03:41:51 AM 35.2458 -81.7244 57° Northeast 284 327 25,000  Level Atlanta Center
Mon 03:42:51 AM 35.2881 -81.6444 57° Northeast 284 327 25,000  Level Atlanta Center
Mon 03:43:51 AM 35.3303 -81.5669 56° Northeast 284 327 25,000  Level Atlanta Center
Mon 03:44:51 AM 35.3725 -81.4867 57° Northeast 284 327 25,000  Level Atlanta Center
Mon 03:45:51 AM 35.4147 -81.4089 56° Northeast 284 327 25,000  Level Atlanta Center
Mon 03:46:51 AM 35.4608 -81.3208 57° Northeast 284 327 25,000  Level Atlanta Center
Mon 03:47:51 AM 35.5028 -81.2428 57° Northeast 284 327 25,000  Level Atlanta Center
Mon 03:48:51 AM 35.5489 -81.1622 55° Northeast 284 327 25,000  Level Atlanta Center
Mon 03:49:51 AM 35.5908 -81.0814 57° Northeast 284 327 25,000  Level Atlanta Center
Mon 03:50:51 AM 35.6347 -80.9981 57° Northeast 284 327 25,000  Level Atlanta Center
Mon 03:51:51 AM 35.6786 -80.9197 55° Northeast 284 327 25,000  Level Atlanta Center
Mon 03:52:51 AM 35.7225 -80.8414 55° Northeast 284 327 25,000  Level Atlanta Center
Mon 03:53:51 AM 35.7642 -80.7578 58° Northeast 284 327 25,000  Level Atlanta Center
Mon 03:54:51 AM 35.8078 -80.6767 56° Northeast 284 327 25,000  Level Atlanta Center
Mon 03:55:51 AM 35.8494 -80.5956 58° Northeast 284 327 25,000  Level Atlanta Center
Mon 03:56:51 AM 35.8931 -80.5142 57° Northeast 284 327 25,000  Level Atlanta Center
Mon 03:57:51 AM 35.9364 -80.4328 57° Northeast 284 327 25,000  Level Atlanta Center
Mon 03:58:51 AM 35.9739 -80.3567 59° Northeast 284 327 25,000  Level Atlanta Center
Mon 04:00:31 AM 36.0456 -80.2214 57° Northeast 293 337 25,000  Level Washington Center
Mon 04:01:30 AM 36.0883 -80.1389 57° Northeast 293 337 25,000  Level Washington Center
Mon 04:02:30 AM 36.1356 -80.0517 56° Northeast 282 325 25,000  Level Washington Center
Mon 04:03:30 AM 36.1781 -79.9717 57° Northeast 277 319 25,000  Level Washington Center
Mon 04:04:30 AM 36.2208 -79.8892 57° Northeast 277 319 25,000  Level Washington Center
Mon 04:05:32 AM 36.2633 -79.8089 57° Northeast 277 319 25,000  Level Washington Center
Mon 04:06:30 AM 36.3058 -79.7261 57° Northeast 277 319 25,000  Level Washington Center
Mon 04:07:30 AM 36.3483 -79.6433 57° Northeast 277 319 25,000  Level Washington Center
Mon 04:08:30 AM 36.3908 -79.5606 57° Northeast 277 319 25,000  Level Washington Center
Mon 04:09:30 AM 36.4331 -79.4800 57° Northeast 277 319 25,000  Level Washington Center
Mon 04:10:31 AM 36.4733 -79.3917 60° Northeast 277 319 25,000  Level Washington Center
Mon 04:11:31 AM 36.5133 -79.3186 56° Northeast 282 325 25,000  Level Washington Center
Mon 04:12:30 AM 36.5578 -79.2328 57° Northeast 282 325 25,000  Level Washington Center
Mon 04:13:31 AM 36.6000 -79.1467 59° Northeast 287 330 25,000  Level Washington Center
Mon 04:14:30 AM 36.6442 -79.0633 57° Northeast 287 330 25,000  Level Washington Center
Mon 04:15:31 AM 36.6928 -78.9672 58° Northeast 292 336 25,000 -744 Level Washington Center
Mon 04:16:31 AM 36.7367 -78.8836 57° Northeast 292 336 23,500 -1,475 Descending Washington Center
Mon 04:17:33 AM 36.7786 -78.7997 58° Northeast 287 330 22,000 -1,513 Descending Washington Center
Mon 04:18:30 AM 36.8206 -78.7133 59° Northeast 287 330 20,500 -1,590 Descending Washington Center
Mon 04:19:30 AM 36.8600 -78.6369 57° Northeast 287 330 18,900 -1,600 Descending Washington Center
Mon 04:20:30 AM 36.9019 -78.5528 58° Northeast 287 330 17,300 -1,500 Descending Washington Center
Mon 04:21:30 AM 36.9456 -78.4689 57° Northeast 287 330 15,900 -1,537 Descending Washington Center
Mon 04:22:31 AM 36.9917 -78.3742 59° Northeast 287 330 14,200 -1,537 Descending Washington Center
Mon 04:23:31 AM 37.0333 -78.2900 58° Northeast 287 330 12,800 -1,462 Descending Washington Center
Mon 04:24:30 AM 37.0725 -78.2081 59° Northeast 287 330 11,300 -1,500 Descending Washington Center
Mon 04:25:31 AM 37.1075 -78.1336 59° Northeast 282 325 9,800 -1,150 Descending Washington Center
Mon 04:26:30 AM 37.1467 -78.0594 56° Northeast 270 311 9,000 -393 Descending Washington Center
Mon 04:27:33 AM 37.1836 -77.9822 59° Northeast 264 304 9,000 -254 Level Washington Center
Mon 04:30:03 AM 37.2833 -77.8000 55° Northeast 251 289 8,100 -629 Descending Potomac TRACON
Mon 04:31:03 AM 37.3333 -77.7333 47° Northeast 247 284 6,800 -1,300 Descending Potomac TRACON
Mon 04:32:03 AM 37.3833 -77.6667 47° Northeast 246 283 5,500 -1,300 Descending Potomac TRACON
Mon 04:33:03 AM 37.4333 -77.6167 38° Northeast 242 278 4,200 -1,140 Descending Potomac TRACON
Mon 04:34:04 AM 37.4667 -77.5500 58° Northeast 233 268 3,200 -595 Descending Potomac TRACON
Mon 04:35:04 AM 37.5167 -77.5000 38° Northeast 214 246 3,000 -99 Descending Potomac TRACON
Mon 04:36:05 AM 37.5500 -77.4667 38° Northeast 196 226 3,000  Level Potomac TRACON
Mon 04:37:11 AM 37.6167 -77.4167 31° Northeast 201 231 3,000 -238 Level Potomac TRACON
Mon 04:38:11 AM 37.6500 -77.3667 50° Northeast 197 227 2,500 -522 Descending Potomac TRACON
Mon 04:39:06 AM 37.6833 -77.3333 38° Northeast 192 221 2,000 -261 Descending Potomac TRACON
Mon 04:40:06 AM 37.6667 -77.2833 113° Southeast 213 245 2,000  Level Potomac TRACON
Mon 04:41:07 AM 37.6333 -77.2833 180° South 143 165 2,000  Level Potomac TRACON
Mon 04:42:07 AM 37.6167 -77.2833 180° South 119 137 2,000 -150 Level Potomac TRACON
Mon 04:43:07 AM 37.5833 -77.3000 202° Southwest 99 114 1,700 -397 Descending Potomac TRACON
Mon 04:44:08 AM 37.5667 -77.3167 218° Southwest 92 106 1,200 -496 Descending Potomac TRACON
Mon 04:45:08 AM 37.5333 -77.3167 180° South 97 112 700 -500 Descending Potomac TRACON

Login

Don't have an account? Register now (free) for customized features, flight alerts, and more!